createdAt,value
2017-10-10T00:00:46.258Z,12.10
2017-10-10T00:01:48.813Z,12.10
2017-10-10T00:02:52.420Z,12.30
2017-10-10T00:03:55.050Z,12.20
2017-10-10T00:04:58.699Z,12.50
2017-10-10T00:06:01.430Z,12.50
2017-10-10T00:07:04.787Z,12.20
2017-10-10T00:08:07.270Z,12.20
2017-10-10T00:09:10.585Z,12.20
2017-10-10T00:10:13.122Z,12.20
2017-10-10T00:11:16.435Z,12.50
2017-10-10T00:12:20.189Z,12.50
2017-10-10T00:13:22.851Z,12.30
2017-10-10T00:14:25.783Z,12.40
2017-10-10T00:15:28.506Z,12.30
2017-10-10T00:16:32.056Z,12.50
2017-10-10T00:17:35.181Z,12.50
2017-10-10T00:18:38.309Z,12.60
2017-10-10T00:19:40.790Z,12.60
2017-10-10T00:20:44.056Z,12.60
2017-10-10T00:21:46.569Z,12.70
2017-10-10T00:22:50.219Z,12.80
2017-10-10T00:23:53.198Z,12.90
2017-10-10T00:24:56.386Z,13.00
2017-10-10T00:25:59.782Z,13.10
2017-10-10T00:27:02.402Z,13.00
2017-10-10T00:28:06.135Z,12.90
2017-10-10T00:29:09.059Z,12.90
2017-10-10T00:30:12.660Z,13.00
2017-10-10T00:31:15.564Z,13.10
2017-10-10T00:32:18.751Z,13.00
2017-10-10T00:33:21.563Z,12.90
2017-10-10T00:34:25.636Z,13.10
2017-10-10T00:35:29.132Z,13.10
2017-10-10T00:36:31.771Z,13.10
2017-10-10T00:37:35.226Z,13.00
2017-10-10T00:38:37.809Z,13.00
2017-10-10T00:39:41.340Z,12.70
2017-10-10T00:40:44.007Z,12.70
2017-10-10T00:41:46.690Z,12.80
2017-10-10T00:42:49.409Z,12.80
2017-10-10T00:43:52.069Z,12.80
2017-10-10T00:44:54.579Z,13.00
2017-10-10T00:45:58.215Z,13.00
2017-10-10T00:47:00.862Z,12.90
2017-10-10T00:48:03.524Z,13.00
2017-10-10T00:49:07.206Z,13.00
2017-10-10T00:50:09.729Z,12.90
2017-10-10T00:51:12.407Z,12.80
2017-10-10T00:52:15.829Z,12.60
2017-10-10T00:53:18.371Z,12.60
2017-10-10T00:54:21.686Z,12.80
2017-10-10T00:55:24.192Z,12.80
2017-10-10T00:56:27.029Z,12.90
2017-10-10T00:57:29.732Z,13.00
2017-10-10T00:58:33.612Z,13.00
2017-10-10T00:59:36.744Z,13.00
2017-10-10T01:02:14.572Z,12.80
2017-10-10T01:03:17.485Z,12.70
2017-10-10T01:04:20.036Z,12.70
2017-10-10T01:05:22.578Z,12.60
2017-10-10T01:06:25.070Z,12.70
2017-10-10T01:07:27.580Z,12.70
2017-10-10T01:08:30.586Z,12.50
2017-10-10T01:09:33.157Z,12.50
2017-10-10T01:10:35.846Z,12.60
2017-10-10T01:11:38.849Z,12.50
2017-10-10T01:12:41.360Z,12.50
2017-10-10T01:13:45.009Z,12.50
2017-10-10T01:14:47.629Z,12.50
2017-10-10T01:15:50.199Z,12.40
2017-10-10T01:16:52.812Z,12.50
2017-10-10T01:17:56.833Z,12.10
2017-10-10T01:19:00.152Z,12.10
2017-10-10T01:20:03.761Z,12.10
2017-10-10T01:21:06.272Z,12.10
2017-10-10T01:22:08.928Z,12.10
2017-10-10T01:23:11.410Z,12.10
2017-10-10T01:24:14.682Z,12.00
2017-10-10T01:25:17.224Z,12.00
2017-10-10T01:26:19.731Z,12.10
2017-10-10T01:27:23.046Z,12.20
2017-10-10T01:28:26.699Z,12.20
2017-10-10T01:29:29.239Z,12.10
2017-10-10T01:30:31.799Z,12.00
2017-10-10T01:31:34.497Z,11.90
2017-10-10T01:32:36.999Z,12.00
2017-10-10T01:33:39.673Z,12.10
2017-10-10T01:34:43.263Z,12.20
2017-10-10T01:35:45.835Z,12.30
2017-10-10T01:36:48.603Z,12.30
2017-10-10T01:37:51.169Z,12.20
2017-10-10T01:38:53.720Z,12.10
2017-10-10T01:39:57.737Z,12.00
2017-10-10T01:41:00.837Z,12.00
2017-10-10T01:42:03.335Z,12.10
2017-10-10T01:43:05.816Z,12.00
2017-10-10T01:44:09.135Z,12.20
2017-10-10T01:45:11.709Z,12.10
2017-10-10T01:46:14.274Z,12.20
2017-10-10T01:47:16.815Z,12.20
2017-10-10T01:48:19.340Z,12.30
2017-10-10T01:49:22.225Z,12.20
2017-10-10T01:50:24.757Z,12.10
2017-10-10T01:51:27.448Z,12.00
2017-10-10T01:52:30.090Z,12.00
2017-10-10T01:53:32.793Z,12.00
2017-10-10T01:54:35.351Z,11.90
2017-10-10T01:55:38.189Z,11.90
2017-10-10T01:56:40.697Z,11.90
2017-10-10T01:57:43.527Z,12.00
2017-10-10T01:58:46.092Z,12.00
2017-10-10T01:59:53.425Z,12.00
2017-10-10T02:00:55.930Z,12.00
2017-10-10T02:01:58.452Z,12.10
2017-10-10T02:03:01.070Z,12.20
2017-10-10T02:04:03.771Z,12.20
2017-10-10T02:05:06.275Z,12.10
2017-10-10T02:06:09.749Z,12.00
2017-10-10T02:07:12.452Z,12.00
2017-10-10T02:08:16.041Z,12.10
2017-10-10T02:09:19.479Z,12.20
2017-10-10T02:10:22.256Z,12.20
2017-10-10T02:11:24.774Z,12.20
2017-10-10T02:12:27.276Z,12.20
2017-10-10T02:13:29.819Z,12.20
2017-10-10T02:14:32.310Z,12.20
2017-10-10T02:15:34.896Z,12.30
2017-10-10T02:16:37.821Z,12.20
2017-10-10T02:17:53.162Z,12.30
2017-10-10T02:18:56.412Z,12.60
2017-10-10T02:19:59.200Z,12.60
2017-10-10T02:21:01.711Z,12.60
2017-10-10T02:22:04.216Z,12.70
2017-10-10T02:23:06.699Z,12.60
2017-10-10T02:24:09.234Z,12.50
2017-10-10T02:25:11.736Z,12.50
2017-10-10T02:26:14.296Z,12.60
2017-10-10T02:27:16.828Z,12.50
2017-10-10T02:28:19.678Z,12.50
2017-10-10T02:29:22.249Z,12.40
2017-10-10T02:30:25.139Z,12.40
2017-10-10T02:31:28.131Z,12.50
2017-10-10T02:32:31.205Z,12.50
2017-10-10T02:33:34.080Z,12.50
2017-10-10T02:34:37.060Z,12.40
2017-10-10T02:35:39.556Z,12.30
2017-10-10T02:36:42.209Z,12.20
2017-10-10T02:37:44.751Z,12.10
2017-10-10T02:38:47.281Z,12.20
2017-10-10T02:39:50.539Z,12.30
2017-10-10T02:40:53.195Z,12.30
2017-10-10T02:41:55.718Z,12.20
2017-10-10T02:42:58.256Z,12.20
2017-10-10T02:44:01.775Z,12.50
2017-10-10T02:45:04.599Z,12.50
2017-10-10T02:46:07.112Z,12.50
2017-10-10T02:47:09.833Z,12.40
2017-10-10T02:48:12.424Z,12.50
2017-10-10T02:49:15.952Z,12.40
2017-10-10T02:50:18.585Z,12.40
2017-10-10T02:51:22.261Z,12.40
2017-10-10T02:52:24.792Z,12.40
2017-10-10T02:53:27.385Z,12.50
2017-10-10T02:54:29.917Z,12.50
2017-10-10T02:55:33.653Z,12.50
2017-10-10T02:56:36.933Z,12.50
2017-10-10T02:57:39.497Z,12.50
2017-10-10T02:58:42.097Z,12.70
2017-10-10T02:59:46.674Z,12.70
2017-10-10T03:00:49.453Z,12.70
2017-10-10T03:01:52.325Z,12.70
2017-10-10T03:02:55.270Z,12.80
2017-10-10T03:03:58.653Z,12.80
2017-10-10T03:05:01.188Z,12.70
2017-10-10T03:06:04.655Z,12.70
2017-10-10T03:07:07.944Z,12.70
2017-10-10T03:08:12.416Z,12.70
2017-10-10T03:09:15.054Z,12.70
2017-10-10T03:10:17.815Z,12.70
2017-10-10T03:11:20.323Z,12.60
2017-10-10T03:12:22.857Z,12.50
2017-10-10T03:13:25.466Z,12.60
2017-10-10T03:14:28.124Z,12.40
2017-10-10T03:15:30.674Z,12.60
2017-10-10T03:16:34.523Z,12.40
2017-10-10T03:17:37.207Z,12.40
2017-10-10T03:18:41.696Z,12.50
2017-10-10T03:19:44.178Z,12.50
2017-10-10T03:20:51.077Z,12.70
2017-10-10T03:21:53.640Z,12.60
2017-10-10T03:22:56.236Z,12.70
2017-10-10T03:23:58.725Z,12.60
2017-10-10T03:25:01.301Z,12.70
2017-10-10T03:26:03.806Z,12.70
2017-10-10T03:27:08.066Z,12.70
2017-10-10T03:28:10.578Z,12.60
2017-10-10T03:29:13.216Z,12.70
2017-10-10T03:30:15.819Z,12.70
2017-10-10T03:31:18.528Z,12.70
2017-10-10T03:32:21.028Z,12.70
2017-10-10T03:33:25.415Z,12.70
2017-10-10T03:34:27.929Z,12.70
2017-10-10T03:35:30.439Z,12.70
2017-10-10T03:36:33.025Z,12.90
2017-10-10T03:37:36.683Z,13.00
2017-10-10T03:38:39.221Z,13.00
2017-10-10T03:39:41.737Z,12.80
2017-10-10T03:40:44.215Z,12.80
2017-10-10T03:41:46.817Z,12.80
2017-10-10T03:42:49.304Z,12.80
2017-10-10T03:43:51.976Z,12.60
2017-10-10T03:44:54.469Z,12.40
2017-10-10T03:45:57.188Z,12.60
2017-10-10T03:46:59.695Z,12.60
2017-10-10T03:48:02.472Z,12.80
2017-10-10T03:49:04.995Z,12.70
2017-10-10T03:50:07.512Z,12.80
2017-10-10T03:51:11.609Z,13.00
2017-10-10T03:52:14.388Z,13.00
2017-10-10T03:53:18.391Z,13.00
2017-10-10T03:54:20.952Z,13.00
2017-10-10T03:55:23.586Z,13.00
2017-10-10T03:56:26.280Z,13.10
2017-10-10T03:57:28.906Z,12.90
2017-10-10T03:58:31.683Z,12.90
2017-10-10T03:59:34.382Z,12.70
2017-10-10T04:00:37.280Z,12.70
2017-10-10T04:01:39.761Z,12.70
2017-10-10T04:02:43.218Z,12.60
2017-10-10T04:03:45.711Z,12.60
2017-10-10T04:04:49.198Z,12.70
2017-10-10T04:05:51.702Z,12.70
2017-10-10T04:06:54.196Z,12.50
2017-10-10T04:07:56.700Z,12.60
2017-10-10T04:09:00.192Z,12.70
2017-10-10T04:10:04.274Z,12.60
2017-10-10T04:11:07.023Z,12.60
2017-10-10T04:12:09.554Z,12.60
2017-10-10T04:13:12.138Z,12.70
2017-10-10T04:14:14.687Z,12.70
2017-10-10T04:15:17.441Z,12.80
2017-10-10T04:16:20.687Z,12.90
2017-10-10T04:17:23.374Z,12.90
2017-10-10T04:18:25.881Z,12.90
2017-10-10T04:19:28.408Z,12.70
2017-10-10T04:20:30.926Z,12.60
2017-10-10T04:21:34.709Z,12.60
2017-10-10T04:22:37.205Z,12.50
2017-10-10T04:23:40.047Z,12.60
2017-10-10T04:24:42.540Z,12.70
2017-10-10T04:25:45.788Z,12.80
2017-10-10T04:26:48.606Z,12.80
2017-10-10T04:27:51.588Z,12.90
2017-10-10T04:28:54.218Z,12.90
2017-10-10T04:29:57.345Z,13.00
2017-10-10T04:30:59.989Z,13.00
2017-10-10T04:32:02.596Z,13.10
2017-10-10T04:33:05.229Z,13.00
2017-10-10T04:34:07.980Z,13.00
2017-10-10T04:35:10.532Z,13.10
2017-10-10T04:36:14.880Z,13.00
2017-10-10T04:37:17.420Z,13.00
2017-10-10T04:38:20.823Z,12.80
2017-10-10T04:39:23.356Z,12.80
2017-10-10T04:40:26.909Z,12.70
2017-10-10T04:41:29.503Z,12.70
2017-10-10T04:42:32.216Z,12.80
2017-10-10T04:43:34.722Z,12.80
2017-10-10T04:44:37.627Z,12.90
2017-10-10T04:45:40.300Z,12.90
2017-10-10T04:46:43.781Z,12.80
2017-10-10T04:47:47.227Z,12.80
2017-10-10T04:48:49.944Z,12.80
2017-10-10T04:49:53.250Z,12.80
2017-10-10T04:50:55.932Z,12.80
2017-10-10T04:51:58.427Z,12.90
2017-10-10T04:53:02.145Z,12.90
2017-10-10T04:54:04.658Z,12.80
2017-10-10T04:55:07.530Z,12.90
2017-10-10T04:56:10.059Z,12.80
2017-10-10T04:57:13.416Z,13.00
2017-10-10T04:58:15.911Z,13.00
2017-10-10T04:59:19.439Z,13.10
2017-10-10T05:00:21.932Z,13.10
2017-10-10T05:01:24.728Z,13.10
2017-10-10T05:02:27.238Z,13.10
2017-10-10T05:03:29.737Z,13.10
2017-10-10T05:04:32.279Z,13.00
2017-10-10T05:05:34.799Z,13.10
2017-10-10T05:06:38.111Z,13.10
2017-10-10T05:07:40.723Z,13.10
2017-10-10T05:08:43.205Z,13.00
2017-10-10T05:09:45.784Z,13.10
2017-10-10T05:10:49.031Z,13.20
2017-10-10T05:11:52.830Z,13.20
2017-10-10T05:12:55.322Z,13.10
2017-10-10T05:13:57.968Z,13.10
2017-10-10T05:15:00.596Z,13.10
2017-10-10T05:16:03.328Z,13.20
2017-10-10T05:17:05.811Z,13.30
2017-10-10T05:18:09.323Z,13.30
2017-10-10T05:19:11.824Z,13.20
2017-10-10T05:20:14.328Z,13.30
2017-10-10T05:21:17.739Z,13.30
2017-10-10T05:22:20.407Z,13.20
2017-10-10T05:23:22.884Z,13.30
2017-10-10T05:24:25.603Z,13.40
2017-10-10T05:25:28.910Z,13.30
2017-10-10T05:26:32.464Z,13.30
2017-10-10T05:27:35.291Z,13.30
2017-10-10T05:28:37.842Z,13.20
2017-10-10T05:29:41.099Z,13.20
2017-10-10T05:30:44.596Z,13.20
2017-10-10T05:31:47.196Z,13.20
2017-10-10T05:32:49.718Z,13.10
2017-10-10T05:33:53.572Z,13.30
2017-10-10T05:34:56.847Z,13.20
2017-10-10T05:35:59.332Z,13.30
2017-10-10T05:37:01.952Z,13.20
2017-10-10T05:38:05.219Z,13.10
2017-10-10T05:39:08.647Z,13.10
2017-10-10T05:40:11.218Z,12.90
2017-10-10T05:41:13.815Z,13.00
2017-10-10T05:42:16.303Z,13.10
2017-10-10T05:43:18.875Z,13.00
2017-10-10T05:44:21.374Z,13.10
2017-10-10T05:45:24.834Z,13.40
2017-10-10T05:46:27.337Z,13.40
2017-10-10T05:47:30.779Z,13.20
2017-10-10T05:48:33.374Z,13.20
2017-10-10T05:49:36.131Z,13.00
2017-10-10T05:50:38.654Z,12.90
2017-10-10T05:51:41.471Z,12.80
2017-10-10T05:52:44.113Z,12.90
2017-10-10T05:53:46.823Z,12.80
2017-10-10T05:54:49.313Z,12.80
2017-10-10T05:55:53.029Z,12.90
2017-10-10T05:56:55.601Z,12.90
2017-10-10T05:57:58.890Z,12.80
2017-10-10T05:59:01.397Z,12.90
2017-10-10T06:00:04.112Z,12.90
2017-10-10T06:01:06.617Z,13.00
2017-10-10T06:02:09.471Z,13.00
2017-10-10T06:03:12.038Z,13.10
2017-10-10T06:04:14.756Z,13.10
2017-10-10T06:05:17.240Z,13.10
2017-10-10T06:06:20.688Z,13.30
2017-10-10T06:07:23.833Z,13.20
2017-10-10T06:08:26.644Z,13.30
2017-10-10T06:09:29.169Z,13.40
2017-10-10T06:10:31.975Z,13.40
2017-10-10T06:11:34.711Z,13.40
2017-10-10T06:12:37.359Z,13.30
2017-10-10T06:13:41.463Z,13.20
2017-10-10T06:14:44.819Z,13.20
2017-10-10T06:15:47.299Z,13.10
2017-10-10T06:16:50.797Z,13.30
2017-10-10T06:17:54.204Z,13.40
2017-10-10T06:18:58.322Z,13.50
2017-10-10T06:20:00.811Z,13.30
2017-10-10T06:21:03.758Z,13.30
2017-10-10T06:22:06.251Z,13.40
2017-10-10T06:23:08.940Z,13.50
2017-10-10T06:24:11.420Z,13.40
2017-10-10T06:25:14.965Z,13.50
2017-10-10T06:26:17.606Z,13.50
2017-10-10T06:27:20.210Z,13.50
2017-10-10T06:28:22.740Z,13.60
2017-10-10T06:29:25.574Z,13.40
2017-10-10T06:30:28.079Z,13.70
2017-10-10T06:31:30.976Z,13.80
2017-10-10T06:32:33.461Z,13.90
2017-10-10T06:33:36.255Z,13.70
2017-10-10T06:34:38.781Z,13.50
2017-10-10T06:35:41.653Z,13.60
2017-10-10T06:36:44.144Z,13.60
2017-10-10T06:38:03.761Z,13.70
2017-10-10T06:39:06.264Z,13.80
2017-10-10T06:40:08.846Z,13.70
2017-10-10T06:41:12.068Z,13.70
2017-10-10T06:42:15.413Z,13.80
2017-10-10T06:43:17.946Z,13.80
2017-10-10T06:44:20.810Z,13.90
2017-10-10T06:45:23.324Z,13.80
2017-10-10T06:46:26.124Z,13.90
2017-10-10T06:47:29.394Z,13.90
2017-10-10T06:48:32.984Z,13.80
2017-10-10T06:49:36.311Z,13.70
2017-10-10T06:50:38.933Z,13.70
2017-10-10T06:51:41.432Z,13.70
2017-10-10T06:52:45.187Z,13.70
2017-10-10T06:53:47.799Z,13.70
2017-10-10T06:54:50.496Z,13.70
2017-10-10T06:55:53.014Z,13.70
2017-10-10T06:56:56.468Z,13.50
2017-10-10T06:57:58.971Z,13.50
2017-10-10T06:59:02.917Z,13.50
2017-10-10T07:00:05.426Z,13.50
2017-10-10T07:01:08.993Z,13.60
2017-10-10T07:02:12.239Z,13.60
2017-10-10T07:03:14.952Z,13.60
2017-10-10T07:04:18.372Z,13.70
2017-10-10T07:05:21.889Z,13.80
2017-10-10T07:06:25.030Z,13.80
2017-10-10T07:07:28.519Z,13.90
2017-10-10T07:08:31.838Z,13.90
2017-10-10T07:09:34.716Z,13.80
2017-10-10T07:10:37.202Z,13.80
2017-10-10T07:11:40.007Z,13.80
2017-10-10T07:12:43.316Z,14.00
2017-10-10T07:13:45.910Z,14.00
2017-10-10T07:14:48.403Z,13.90
2017-10-10T07:15:50.974Z,14.00
2017-10-10T07:16:53.524Z,14.10
2017-10-10T07:17:56.459Z,14.20
2017-10-10T07:18:58.975Z,14.10
2017-10-10T07:20:01.636Z,14.10
2017-10-10T07:21:04.129Z,14.00
2017-10-10T07:22:06.731Z,14.10
2017-10-10T07:23:09.296Z,14.10
2017-10-10T07:24:12.068Z,14.10
2017-10-10T07:25:14.656Z,14.10
2017-10-10T07:26:17.361Z,14.20
2017-10-10T07:27:20.855Z,14.20
2017-10-10T07:28:23.618Z,14.10
2017-10-10T07:29:26.137Z,14.10
2017-10-10T07:30:28.958Z,14.10
2017-10-10T07:31:31.888Z,14.30
2017-10-10T07:32:35.582Z,14.20
2017-10-10T07:33:38.091Z,14.40
2017-10-10T07:34:40.936Z,14.50
2017-10-10T07:35:43.441Z,14.40
2017-10-10T07:36:47.794Z,14.50
2017-10-10T07:37:50.313Z,14.50
2017-10-10T07:38:52.932Z,14.20
2017-10-10T07:39:55.428Z,14.20
2017-10-10T07:40:57.947Z,14.10
2017-10-10T07:42:00.459Z,14.20
2017-10-10T07:43:07.608Z,14.30
2017-10-10T07:44:10.484Z,14.30
2017-10-10T07:45:14.400Z,14.40
2017-10-10T07:46:17.575Z,14.40
2017-10-10T07:47:20.109Z,14.50
2017-10-10T07:48:23.404Z,14.30
2017-10-10T07:49:25.993Z,14.30
2017-10-10T07:50:28.504Z,14.40
2017-10-10T07:51:31.034Z,14.40
2017-10-10T07:52:33.534Z,14.60
2017-10-10T07:53:36.059Z,14.60
2017-10-10T07:54:38.713Z,14.60
2017-10-10T07:55:43.543Z,14.80
2017-10-10T07:56:46.260Z,14.70
2017-10-10T07:57:48.839Z,14.60
2017-10-10T07:58:51.346Z,14.50
2017-10-10T07:59:58.737Z,14.60
2017-10-10T08:01:01.304Z,14.60
2017-10-10T08:02:03.822Z,14.40
2017-10-10T08:03:06.440Z,14.40
2017-10-10T08:04:08.976Z,14.40
2017-10-10T08:05:11.492Z,14.40
2017-10-10T08:06:15.008Z,14.40
2017-10-10T08:07:18.288Z,14.60
2017-10-10T08:08:21.225Z,14.50
2017-10-10T08:09:23.759Z,14.50
2017-10-10T08:10:27.472Z,14.50
2017-10-10T08:11:29.969Z,14.50
2017-10-10T08:12:32.467Z,14.50
2017-10-10T08:13:35.764Z,14.50
2017-10-10T08:14:39.020Z,14.60
2017-10-10T08:15:42.352Z,14.70
2017-10-10T08:16:44.851Z,14.70
2017-10-10T08:17:48.073Z,14.70
2017-10-10T08:18:51.382Z,14.70
2017-10-10T08:19:57.547Z,14.60
2017-10-10T08:21:00.027Z,14.80
2017-10-10T08:22:03.291Z,14.90
2017-10-10T08:23:05.771Z,14.80
2017-10-10T08:24:08.246Z,15.00
2017-10-10T08:25:10.798Z,14.90
2017-10-10T08:26:13.363Z,14.90
2017-10-10T08:27:15.927Z,14.90
2017-10-10T08:28:19.555Z,14.90
2017-10-10T08:29:22.189Z,14.90
2017-10-10T08:30:25.777Z,15.00
2017-10-10T08:31:28.346Z,14.90
2017-10-10T08:32:30.873Z,14.90
2017-10-10T08:33:33.387Z,15.10
2017-10-10T08:34:35.959Z,15.10
2017-10-10T08:35:38.437Z,15.20
2017-10-10T08:36:40.995Z,15.20
2017-10-10T08:37:43.552Z,15.10
2017-10-10T08:38:46.038Z,15.20
2017-10-10T08:39:48.541Z,15.30
2017-10-10T08:40:51.863Z,15.30
2017-10-10T08:41:54.432Z,15.30
2017-10-10T08:42:57.032Z,15.30
2017-10-10T08:43:59.639Z,15.30
2017-10-10T08:45:02.149Z,15.20
2017-10-10T08:46:05.726Z,15.10
2017-10-10T08:47:08.497Z,15.20
2017-10-10T08:48:10.986Z,15.30
2017-10-10T08:49:13.480Z,15.10
2017-10-10T08:50:15.995Z,15.30
2017-10-10T08:51:18.500Z,15.40
2017-10-10T08:52:20.994Z,15.30
2017-10-10T08:53:25.335Z,15.50
2017-10-10T08:54:27.901Z,15.50
2017-10-10T08:55:30.468Z,15.50
2017-10-10T08:56:33.083Z,15.40
2017-10-10T08:57:35.600Z,15.30
2017-10-10T08:58:38.191Z,15.40
2017-10-10T08:59:40.907Z,15.40
2017-10-10T09:00:43.505Z,15.50
2017-10-10T09:01:46.010Z,15.40
2017-10-10T09:02:48.508Z,15.40
2017-10-10T09:03:51.860Z,15.30
2017-10-10T09:04:54.493Z,15.30
2017-10-10T09:05:57.140Z,15.40
2017-10-10T09:07:00.442Z,15.60
2017-10-10T09:08:02.962Z,15.60
2017-10-10T09:09:05.477Z,15.70
2017-10-10T09:10:07.992Z,15.70
2017-10-10T09:11:10.499Z,15.50
2017-10-10T09:12:13.041Z,15.70
2017-10-10T09:13:15.585Z,15.60
2017-10-10T09:14:18.079Z,15.70
2017-10-10T09:15:21.503Z,15.60
2017-10-10T09:16:24.043Z,15.60
2017-10-10T09:17:27.292Z,16.20
2017-10-10T09:18:29.964Z,16.20
2017-10-10T09:19:32.475Z,16.00
2017-10-10T09:20:34.972Z,16.00
2017-10-10T09:21:37.480Z,16.10
2017-10-10T09:22:41.918Z,16.40
2017-10-10T09:23:44.398Z,16.40
2017-10-10T09:24:46.913Z,16.80
2017-10-10T09:25:49.513Z,16.90
2017-10-10T09:26:52.040Z,17.20
2017-10-10T09:27:54.599Z,17.40
2017-10-10T09:28:57.135Z,17.60
2017-10-10T09:29:59.628Z,17.70
2017-10-10T09:31:02.145Z,17.50
2017-10-10T09:32:04.619Z,17.60
2017-10-10T09:33:07.133Z,17.50
2017-10-10T09:34:09.620Z,17.50
2017-10-10T09:35:12.926Z,17.40
2017-10-10T09:36:15.494Z,17.40
2017-10-10T09:37:17.991Z,17.20
2017-10-10T09:38:20.497Z,17.10
2017-10-10T09:39:24.232Z,16.70
2017-10-10T09:40:26.708Z,16.70
2017-10-10T09:41:29.212Z,16.40
2017-10-10T09:42:35.964Z,16.30
2017-10-10T09:43:38.483Z,16.50
2017-10-10T09:44:41.010Z,16.40
2017-10-10T09:45:44.132Z,16.40
2017-10-10T09:46:46.623Z,16.40
2017-10-10T09:47:49.137Z,16.30
2017-10-10T09:48:52.420Z,16.20
2017-10-10T09:49:55.670Z,16.20
2017-10-10T09:50:58.203Z,16.20
2017-10-10T09:52:00.703Z,16.20
2017-10-10T09:53:03.330Z,16.00
2017-10-10T09:54:05.938Z,16.10
2017-10-10T09:55:08.464Z,16.10
2017-10-10T09:56:10.961Z,16.00
2017-10-10T09:57:13.490Z,16.00
2017-10-10T09:58:17.029Z,16.00
2017-10-10T09:59:19.568Z,16.10
2017-10-10T10:00:23.067Z,16.00
2017-10-10T10:01:25.599Z,15.90
2017-10-10T10:02:28.115Z,15.90
2017-10-10T10:03:30.617Z,15.90
2017-10-10T10:04:33.868Z,15.70
2017-10-10T10:05:37.856Z,15.70
2017-10-10T10:06:40.364Z,15.70
2017-10-10T10:07:43.643Z,15.70
2017-10-10T10:08:49.069Z,15.70
2017-10-10T10:09:51.553Z,15.70
2017-10-10T10:10:54.065Z,15.80
2017-10-10T10:11:56.797Z,16.10
2017-10-10T10:12:59.317Z,16.20
2017-10-10T10:14:01.934Z,16.30
2017-10-10T10:15:05.520Z,16.40
2017-10-10T10:16:08.299Z,16.40
2017-10-10T10:17:10.833Z,16.60
2017-10-10T10:18:13.333Z,17.00
2017-10-10T10:19:15.844Z,17.20
2017-10-10T10:20:18.339Z,17.30
2017-10-10T10:21:21.786Z,17.60
2017-10-10T10:22:24.332Z,17.60
2017-10-10T10:23:26.837Z,17.80
2017-10-10T10:24:29.389Z,17.70
2017-10-10T10:25:31.912Z,17.80
2017-10-10T10:26:34.547Z,17.90
2017-10-10T10:27:37.967Z,17.80
2017-10-10T10:28:40.455Z,17.80
2017-10-10T10:29:43.273Z,18.20
2017-10-10T10:30:45.775Z,18.30
2017-10-10T10:31:48.652Z,18.20
2017-10-10T10:32:51.163Z,18.10
2017-10-10T10:33:55.423Z,18.30
2017-10-10T10:34:57.970Z,18.30
2017-10-10T10:36:01.338Z,18.20
2017-10-10T10:37:04.689Z,18.30
2017-10-10T10:38:07.374Z,18.20
2017-10-10T10:39:09.903Z,18.40
2017-10-10T10:40:12.465Z,18.30
2017-10-10T10:41:15.016Z,18.50
2017-10-10T10:42:18.520Z,18.60
2017-10-10T10:43:21.065Z,18.50
2017-10-10T10:44:24.384Z,18.30
2017-10-10T10:45:26.977Z,18.30
2017-10-10T10:46:29.516Z,18.30
2017-10-10T10:47:32.012Z,17.80
2017-10-10T10:48:34.631Z,17.70
2017-10-10T10:49:37.179Z,17.40
2017-10-10T10:50:41.468Z,17.70
2017-10-10T10:51:44.207Z,17.70
2017-10-10T10:52:46.875Z,17.80
2017-10-10T10:53:49.379Z,17.80
2017-10-10T10:54:52.703Z,17.90
2017-10-10T10:55:55.684Z,17.80
2017-10-10T10:56:58.246Z,17.90
2017-10-10T10:58:00.754Z,18.10
2017-10-10T10:59:03.393Z,18.10
2017-10-10T11:00:05.893Z,17.90
2017-10-10T11:01:08.832Z,18.00
2017-10-10T11:02:11.359Z,18.10
2017-10-10T11:03:14.622Z,18.10
2017-10-10T11:04:17.240Z,18.10
2017-10-10T11:05:19.839Z,18.20
2017-10-10T11:06:22.344Z,18.20
2017-10-10T11:07:25.682Z,18.00
2017-10-10T11:08:28.935Z,17.90
2017-10-10T11:09:31.488Z,17.80
2017-10-10T11:10:34.076Z,17.70
2017-10-10T11:11:36.569Z,17.70
2017-10-10T11:12:39.109Z,17.90
2017-10-10T11:13:41.672Z,17.90
2017-10-10T11:14:44.240Z,17.90
2017-10-10T11:15:46.779Z,17.70
2017-10-10T11:16:50.055Z,17.70
2017-10-10T11:17:52.592Z,17.70
2017-10-10T11:18:55.100Z,17.90
2017-10-10T11:19:58.351Z,18.10
2017-10-10T11:21:00.838Z,18.10
2017-10-10T11:22:04.114Z,18.20
2017-10-10T11:23:06.722Z,18.20
2017-10-10T11:24:09.257Z,18.30
2017-10-10T11:25:12.633Z,18.50
2017-10-10T11:26:16.627Z,18.20
2017-10-10T11:27:19.144Z,18.30
2017-10-10T11:28:21.914Z,18.40
2017-10-10T11:29:24.411Z,18.20
2017-10-10T11:30:26.945Z,18.20
2017-10-10T11:31:29.465Z,18.20
2017-10-10T11:32:32.053Z,18.20
2017-10-10T11:33:35.326Z,18.30
2017-10-10T11:34:38.620Z,18.10
2017-10-10T11:35:41.898Z,18.00
2017-10-10T11:36:45.218Z,17.80
2017-10-10T11:37:47.793Z,17.80
2017-10-10T11:38:50.329Z,17.70
2017-10-10T11:39:53.589Z,17.70
2017-10-10T11:40:56.202Z,17.70
2017-10-10T11:41:58.778Z,17.90
2017-10-10T11:43:01.289Z,17.90
2017-10-10T11:44:05.545Z,17.90
2017-10-10T11:45:08.067Z,17.90
2017-10-10T11:46:10.593Z,18.20
2017-10-10T11:47:13.102Z,18.30
2017-10-10T11:48:15.592Z,18.10
2017-10-10T11:49:18.177Z,18.00
2017-10-10T11:50:20.703Z,17.70
2017-10-10T11:51:23.308Z,17.70
2017-10-10T11:52:25.812Z,17.60
2017-10-10T11:53:28.368Z,17.50
2017-10-10T11:54:30.872Z,17.50
2017-10-10T11:55:34.148Z,17.50
2017-10-10T11:56:37.410Z,17.50
2017-10-10T11:57:39.954Z,17.50
2017-10-10T11:58:42.440Z,17.50
2017-10-10T11:59:45.020Z,17.50
2017-10-10T12:00:47.550Z,17.60
2017-10-10T12:01:51.123Z,17.70
2017-10-10T12:02:53.662Z,17.80
2017-10-10T12:03:56.257Z,18.00
2017-10-10T12:04:58.774Z,18.10
2017-10-10T12:06:01.271Z,18.20
2017-10-10T12:07:04.564Z,18.40
2017-10-10T12:08:07.880Z,18.10
2017-10-10T12:09:10.362Z,18.10
2017-10-10T12:10:13.884Z,18.20
2017-10-10T12:11:17.404Z,18.20
2017-10-10T12:12:20.555Z,18.20
2017-10-10T12:13:23.957Z,18.30
2017-10-10T12:14:26.534Z,18.20
2017-10-10T12:15:29.204Z,18.40
2017-10-10T12:16:31.890Z,18.20
2017-10-10T12:17:34.408Z,18.20
2017-10-10T12:18:38.038Z,18.10
2017-10-10T12:19:40.532Z,18.20
2017-10-10T12:20:43.030Z,18.10
2017-10-10T12:21:45.557Z,18.10
2017-10-10T12:22:48.075Z,18.20
2017-10-10T12:23:51.430Z,18.10
2017-10-10T12:24:54.364Z,18.10
2017-10-10T12:25:56.947Z,18.20
2017-10-10T12:26:59.566Z,18.10
2017-10-10T12:28:07.286Z,17.90
2017-10-10T12:29:09.859Z,17.90
2017-10-10T12:30:12.797Z,17.90
2017-10-10T12:31:15.508Z,17.70
2017-10-10T12:32:18.192Z,17.80
2017-10-10T12:33:20.751Z,17.70
2017-10-10T12:34:23.326Z,17.60
2017-10-10T12:35:32.060Z,17.50
2017-10-10T12:36:34.814Z,17.50
2017-10-10T12:37:37.404Z,17.40
2017-10-10T12:38:39.895Z,17.50
2017-10-10T12:39:43.320Z,17.40
2017-10-10T12:40:45.888Z,17.40
2017-10-10T12:41:48.416Z,17.40
2017-10-10T12:42:51.000Z,17.50
2017-10-10T12:43:56.392Z,17.40
2017-10-10T12:44:59.024Z,17.40
2017-10-10T12:46:01.548Z,17.50
2017-10-10T12:47:04.093Z,17.60
2017-10-10T12:48:07.267Z,17.70
2017-10-10T12:49:10.525Z,17.70
2017-10-10T12:50:16.411Z,17.80
2017-10-10T12:51:19.059Z,17.90
2017-10-10T12:52:21.772Z,18.00
2017-10-10T12:53:24.723Z,18.00
2017-10-10T12:54:27.309Z,18.10
2017-10-10T12:55:32.161Z,18.20
2017-10-10T12:56:34.719Z,18.20
2017-10-10T12:57:37.983Z,18.30
2017-10-10T12:58:41.509Z,18.30
2017-10-10T12:59:44.023Z,18.20
2017-10-10T13:00:46.687Z,18.20
2017-10-10T13:01:49.325Z,17.90
2017-10-10T13:02:51.890Z,17.90
2017-10-10T13:03:54.451Z,17.70
2017-10-10T13:04:58.004Z,17.60
2017-10-10T13:06:03.648Z,17.30
2017-10-10T13:07:07.083Z,17.20
2017-10-10T13:08:10.641Z,17.20
2017-10-10T13:09:13.897Z,17.20
2017-10-10T13:10:17.354Z,17.20
2017-10-10T13:11:22.117Z,17.30
2017-10-10T13:12:30.165Z,17.30
2017-10-10T13:13:37.725Z,17.20
2017-10-10T13:14:40.248Z,17.10
2017-10-10T13:15:43.103Z,17.10
2017-10-10T13:16:45.599Z,17.00
2017-10-10T13:17:48.942Z,17.00
2017-10-10T13:18:51.796Z,17.00
2017-10-10T13:19:54.828Z,17.00
2017-10-10T13:20:57.602Z,17.10
2017-10-10T13:22:02.271Z,17.10
2017-10-10T13:23:04.794Z,17.00
2017-10-10T13:24:07.823Z,17.00
2017-10-10T13:25:10.440Z,16.90
2017-10-10T13:26:13.597Z,16.80
2017-10-10T13:27:16.576Z,16.80
2017-10-10T13:28:19.112Z,16.70
2017-10-10T13:29:21.927Z,16.70
2017-10-10T13:30:24.453Z,16.70
2017-10-10T13:31:27.063Z,16.80
2017-10-10T13:32:30.185Z,16.80